sensor_id;sensor_type;location;lat;lon;timestamp;P1;durP1;ratioP1;P2;durP2;ratioP2
12359;SDS011;6244;51.460;7.090;2023-02-01T00:02:13;17.77;;;8.32;;
12359;SDS011;6244;51.460;7.090;2023-02-01T00:07:10;12.02;;;6.88;;
12359;SDS011;6244;51.460;7.090;2023-02-01T00:12:08;15.10;;;6.82;;
12359;SDS011;6244;51.460;7.090;2023-02-01T00:17:05;15.65;;;7.38;;
12359;SDS011;6244;51.460;7.090;2023-02-01T00:22:02;13.30;;;5.93;;
12359;SDS011;6244;51.460;7.090;2023-02-01T00:26:58;16.80;;;6.03;;
12359;SDS011;6244;51.460;7.090;2023-02-01T00:31:56;17.48;;;6.32;;
12359;SDS011;6244;51.460;7.090;2023-02-01T00:36:53;14.32;;;5.63;;
12359;SDS011;6244;51.460;7.090;2023-02-01T00:41:49;12.90;;;6.25;;
12359;SDS011;6244;51.460;7.090;2023-02-01T00:46:46;14.40;;;5.40;;
12359;SDS011;6244;51.460;7.090;2023-02-01T00:51:43;13.00;;;5.10;;
12359;SDS011;6244;51.460;7.090;2023-02-01T00:56:40;12.90;;;5.30;;
12359;SDS011;6244;51.460;7.090;2023-02-01T01:01:36;21.33;;;6.88;;
12359;SDS011;6244;51.460;7.090;2023-02-01T01:06:33;12.90;;;5.95;;
12359;SDS011;6244;51.460;7.090;2023-02-01T01:11:32;13.07;;;5.30;;
12359;SDS011;6244;51.460;7.090;2023-02-01T01:16:31;11.57;;;5.13;;
12359;SDS011;6244;51.460;7.090;2023-02-01T01:21:28;11.23;;;5.60;;
12359;SDS011;6244;51.460;7.090;2023-02-01T01:26:27;10.70;;;5.47;;
12359;SDS011;6244;51.460;7.090;2023-02-01T01:31:26;12.18;;;5.93;;
12359;SDS011;6244;51.460;7.090;2023-02-01T01:36:23;16.25;;;7.53;;
12359;SDS011;6244;51.460;7.090;2023-02-01T01:41:22;14.90;;;5.85;;
12359;SDS011;6244;51.460;7.090;2023-02-01T01:46:21;19.33;;;7.45;;
12359;SDS011;6244;51.460;7.090;2023-02-01T01:51:21;11.40;;;6.18;;
12359;SDS011;6244;51.460;7.090;2023-02-01T01:56:21;15.50;;;7.43;;
12359;SDS011;6244;51.460;7.090;2023-02-01T02:01:18;19.77;;;7.93;;
12359;SDS011;6244;51.460;7.090;2023-02-01T02:06:16;17.33;;;7.43;;
12359;SDS011;6244;51.460;7.090;2023-02-01T02:11:23;16.15;;;6.60;;
12359;SDS011;6244;51.460;7.090;2023-02-01T02:21:54;12.25;;;5.68;;
12359;SDS011;6244;51.460;7.090;2023-02-01T02:27:10;11.48;;;5.32;;
12359;SDS011;6244;51.460;7.090;2023-02-01T02:38:17;12.00;;;5.70;;
12359;SDS011;6244;51.460;7.090;2023-02-01T02:43:21;17.65;;;7.30;;
12359;SDS011;6244;51.460;7.090;2023-02-01T06:23:18;14.70;;;4.28;;
12359;SDS011;6244;51.460;7.090;2023-02-01T06:34:14;15.95;;;4.78;;
12359;SDS011;6244;51.460;7.090;2023-02-01T07:02:12;13.60;;;4.97;;
12359;SDS011;6244;51.460;7.090;2023-02-01T07:07:08;12.70;;;5.07;;
12359;SDS011;6244;51.460;7.090;2023-02-01T07:12:05;13.90;;;5.03;;
12359;SDS011;6244;51.460;7.090;2023-02-01T07:17:02;14.48;;;5.53;;
12359;SDS011;6244;51.460;7.090;2023-02-01T07:22:00;12.57;;;4.53;;
12359;SDS011;6244;51.460;7.090;2023-02-01T07:26:56;15.02;;;6.10;;
12359;SDS011;6244;51.460;7.090;2023-02-01T07:31:53;11.05;;;5.88;;
12359;SDS011;6244;51.460;7.090;2023-02-01T07:36:49;12.60;;;5.25;;
12359;SDS011;6244;51.460;7.090;2023-02-01T07:41:47;11.65;;;4.53;;
12359;SDS011;6244;51.460;7.090;2023-02-01T07:46:43;10.57;;;5.00;;
12359;SDS011;6244;51.460;7.090;2023-02-01T07:51:40;11.35;;;4.95;;
12359;SDS011;6244;51.460;7.090;2023-02-01T07:56:36;17.52;;;4.97;;
12359;SDS011;6244;51.460;7.090;2023-02-01T08:01:34;15.32;;;5.15;;
12359;SDS011;6244;51.460;7.090;2023-02-01T08:06:31;18.40;;;7.00;;
12359;SDS011;6244;51.460;7.090;2023-02-01T08:11:30;13.50;;;4.80;;
12359;SDS011;6244;51.460;7.090;2023-02-01T08:16:27;19.40;;;7.60;;
12359;SDS011;6244;51.460;7.090;2023-02-01T08:21:25;12.00;;;5.45;;
12359;SDS011;6244;51.460;7.090;2023-02-01T08:26:31;20.25;;;5.75;;
12359;SDS011;6244;51.460;7.090;2023-02-01T08:31:28;15.82;;;7.00;;
12359;SDS011;6244;51.460;7.090;2023-02-01T08:36:28;12.27;;;5.10;;
12359;SDS011;6244;51.460;7.090;2023-02-01T08:41:27;15.88;;;5.10;;
12359;SDS011;6244;51.460;7.090;2023-02-01T08:46:25;19.55;;;6.35;;
12359;SDS011;6244;51.460;7.090;2023-02-01T08:51:22;16.00;;;6.28;;
12359;SDS011;6244;51.460;7.090;2023-02-01T08:56:20;13.85;;;5.35;;
12359;SDS011;6244;51.460;7.090;2023-02-01T09:01:17;17.73;;;5.63;;
12359;SDS011;6244;51.460;7.090;2023-02-01T09:06:14;15.48;;;6.22;;
12359;SDS011;6244;51.460;7.090;2023-02-01T09:11:12;16.67;;;5.45;;
12359;SDS011;6244;51.460;7.090;2023-02-01T09:16:12;18.75;;;6.93;;
12359;SDS011;6244;51.460;7.090;2023-02-01T09:21:08;9.40;;;5.13;;
12359;SDS011;6244;51.460;7.090;2023-02-01T09:26:05;14.45;;;5.13;;
12359;SDS011;6244;51.460;7.090;2023-02-01T09:31:01;11.32;;;5.03;;
12359;SDS011;6244;51.460;7.090;2023-02-01T09:36:00;17.63;;;5.38;;
12359;SDS011;6244;51.460;7.090;2023-02-01T09:40:58;12.93;;;5.47;;
12359;SDS011;6244;51.460;7.090;2023-02-01T09:45:57;15.38;;;5.45;;
12359;SDS011;6244;51.460;7.090;2023-02-01T09:51:02;17.42;;;6.13;;
12359;SDS011;6244;51.460;7.090;2023-02-01T09:56:04;13.32;;;5.35;;
12359;SDS011;6244;51.460;7.090;2023-02-01T10:01:02;14.30;;;5.72;;
12359;SDS011;6244;51.460;7.090;2023-02-01T10:06:06;14.50;;;5.07;;
12359;SDS011;6244;51.460;7.090;2023-02-01T10:11:17;16.33;;;6.00;;
12359;SDS011;6244;51.460;7.090;2023-02-01T10:16:27;15.07;;;5.70;;
12359;SDS011;6244;51.460;7.090;2023-02-01T10:21:40;19.05;;;6.82;;
12359;SDS011;6244;51.460;7.090;2023-02-01T10:26:42;15.13;;;5.70;;
12359;SDS011;6244;51.460;7.090;2023-02-01T10:31:41;10.48;;;5.32;;
12359;SDS011;6244;51.460;7.090;2023-02-01T10:36:41;8.43;;;5.07;;
12359;SDS011;6244;51.460;7.090;2023-02-01T10:41:45;12.02;;;5.65;;
12359;SDS011;6244;51.460;7.090;2023-02-01T10:46:42;18.13;;;5.65;;
12359;SDS011;6244;51.460;7.090;2023-02-01T10:51:42;18.35;;;5.78;;
12359;SDS011;6244;51.460;7.090;2023-02-01T10:56:43;12.23;;;5.40;;
12359;SDS011;6244;51.460;7.090;2023-02-01T11:01:41;12.35;;;6.97;;
12359;SDS011;6244;51.460;7.090;2023-02-01T11:06:41;11.73;;;5.53;;
12359;SDS011;6244;51.460;7.090;2023-02-01T11:11:52;14.40;;;5.50;;
12359;SDS011;6244;51.460;7.090;2023-02-01T11:16:52;13.43;;;6.25;;
12359;SDS011;6244;51.460;7.090;2023-02-01T11:21:51;17.35;;;5.90;;
12359;SDS011;6244;51.460;7.090;2023-02-01T11:26:48;12.07;;;6.07;;
12359;SDS011;6244;51.460;7.090;2023-02-01T11:31:45;12.50;;;5.93;;
12359;SDS011;6244;51.460;7.090;2023-02-01T11:36:42;12.35;;;6.15;;
12359;SDS011;6244;51.460;7.090;2023-02-01T11:41:44;11.63;;;5.20;;
12359;SDS011;6244;51.460;7.090;2023-02-01T11:46:52;17.58;;;6.53;;
12359;SDS011;6244;51.460;7.090;2023-02-01T11:51:52;12.57;;;6.10;;
12359;SDS011;6244;51.460;7.090;2023-02-01T11:57:03;11.82;;;5.28;;
12359;SDS011;6244;51.460;7.090;2023-02-01T12:02:14;14.48;;;6.20;;
12359;SDS011;6244;51.460;7.090;2023-02-01T12:07:47;19.02;;;5.35;;
12359;SDS011;6244;51.460;7.090;2023-02-01T12:12:56;16.63;;;6.10;;
12359;SDS011;6244;51.460;7.090;2023-02-01T12:18:11;14.57;;;6.03;;
12359;SDS011;6244;51.460;7.090;2023-02-01T12:23:35;20.02;;;6.15;;
12359;SDS011;6244;51.460;7.090;2023-02-01T12:28:52;14.70;;;5.47;;
12359;SDS011;6244;51.460;7.090;2023-02-01T12:34:05;12.45;;;5.38;;
12359;SDS011;6244;51.460;7.090;2023-02-01T12:39:22;12.35;;;5.55;;
12359;SDS011;6244;51.460;7.090;2023-02-01T12:44:28;11.25;;;5.47;;
12359;SDS011;6244;51.460;7.090;2023-02-01T12:49:34;15.35;;;5.50;;
12359;SDS011;6244;51.460;7.090;2023-02-01T12:54:41;13.23;;;5.15;;
12359;SDS011;6244;51.460;7.090;2023-02-01T12:59:46;10.60;;;4.97;;
12359;SDS011;6244;51.460;7.090;2023-02-01T13:04:51;12.07;;;4.53;;
12359;SDS011;6244;51.460;7.090;2023-02-01T13:09:55;9.20;;;4.28;;
12359;SDS011;6244;51.460;7.090;2023-02-01T13:19:57;12.88;;;4.00;;
12359;SDS011;6244;51.460;7.090;2023-02-01T13:24:59;8.52;;;4.15;;
12359;SDS011;6244;51.460;7.090;2023-02-01T13:30:00;12.75;;;4.88;;
12359;SDS011;6244;51.460;7.090;2023-02-01T13:40:43;10.38;;;4.20;;
12359;SDS011;6244;51.460;7.090;2023-02-01T13:45:47;10.80;;;4.40;;
12359;SDS011;6244;51.460;7.090;2023-02-01T13:50:49;8.40;;;4.53;;
12359;SDS011;6244;51.460;7.090;2023-02-01T13:55:49;11.40;;;3.75;;
12359;SDS011;6244;51.460;7.090;2023-02-01T14:01:24;11.20;;;3.95;;
12359;SDS011;6244;51.460;7.090;2023-02-01T14:06:41;10.75;;;3.85;;
12359;SDS011;6244;51.460;7.090;2023-02-01T14:11:41;11.07;;;4.13;;
12359;SDS011;6244;51.460;7.090;2023-02-01T14:16:40;11.90;;;3.90;;
12359;SDS011;6244;51.460;7.090;2023-02-01T14:21:46;13.35;;;4.03;;
12359;SDS011;6244;51.460;7.090;2023-02-01T14:26:44;13.88;;;3.67;;
12359;SDS011;6244;51.460;7.090;2023-02-01T14:36:57;10.25;;;4.00;;
12359;SDS011;6244;51.460;7.090;2023-02-01T14:41:57;13.73;;;4.32;;
12359;SDS011;6244;51.460;7.090;2023-02-01T14:47:08;9.48;;;4.10;;
12359;SDS011;6244;51.460;7.090;2023-02-01T14:52:09;12.50;;;3.72;;
12359;SDS011;6244;51.460;7.090;2023-02-01T16:11:23;7.07;;;3.42;;
12359;SDS011;6244;51.460;7.090;2023-02-01T18:31:06;10.02;;;4.65;;
12359;SDS011;6244;51.460;7.090;2023-02-01T20:06:37;5.95;;;2.67;;
12359;SDS011;6244;51.460;7.090;2023-02-01T20:11:56;5.65;;;2.47;;
12359;SDS011;6244;51.460;7.090;2023-02-01T20:16:53;6.25;;;2.78;;
12359;SDS011;6244;51.460;7.090;2023-02-01T20:21:51;6.85;;;3.10;;
12359;SDS011;6244;51.460;7.090;2023-02-01T20:27:09;6.32;;;2.92;;
12359;SDS011;6244;51.460;7.090;2023-02-01T20:32:07;6.28;;;3.45;;
12359;SDS011;6244;51.460;7.090;2023-02-01T20:37:07;6.13;;;3.03;;
12359;SDS011;6244;51.460;7.090;2023-02-01T20:42:09;7.10;;;2.67;;
12359;SDS011;6244;51.460;7.090;2023-02-01T20:47:51;4.68;;;2.70;;
12359;SDS011;6244;51.460;7.090;2023-02-01T20:59:03;6.53;;;3.45;;
12359;SDS011;6244;51.460;7.090;2023-02-01T21:04:04;6.57;;;3.50;;
12359;SDS011;6244;51.460;7.090;2023-02-01T21:09:18;4.45;;;3.10;;
12359;SDS011;6244;51.460;7.090;2023-02-01T21:14:42;6.25;;;2.95;;
12359;SDS011;6244;51.460;7.090;2023-02-01T21:19:53;5.53;;;2.70;;
12359;SDS011;6244;51.460;7.090;2023-02-01T21:30:34;4.03;;;2.83;;
12359;SDS011;6244;51.460;7.090;2023-02-01T21:35:31;4.60;;;3.20;;
12359;SDS011;6244;51.460;7.090;2023-02-01T21:40:27;5.70;;;3.03;;
12359;SDS011;6244;51.460;7.090;2023-02-01T21:45:24;4.72;;;3.10;;
12359;SDS011;6244;51.460;7.090;2023-02-01T21:50:21;4.85;;;2.88;;
12359;SDS011;6244;51.460;7.090;2023-02-01T21:55:18;3.92;;;2.40;;
12359;SDS011;6244;51.460;7.090;2023-02-01T22:00:15;6.78;;;2.95;;
12359;SDS011;6244;51.460;7.090;2023-02-01T22:05:12;2.47;;;1.88;;
12359;SDS011;6244;51.460;7.090;2023-02-01T22:10:11;6.20;;;3.13;;
12359;SDS011;6244;51.460;7.090;2023-02-01T22:15:08;3.25;;;2.22;;
12359;SDS011;6244;51.460;7.090;2023-02-01T22:20:05;4.40;;;2.35;;
12359;SDS011;6244;51.460;7.090;2023-02-01T22:25:03;2.22;;;2.03;;
12359;SDS011;6244;51.460;7.090;2023-02-01T22:30:01;4.88;;;2.15;;
12359;SDS011;6244;51.460;7.090;2023-02-01T22:34:58;2.70;;;2.10;;
12359;SDS011;6244;51.460;7.090;2023-02-01T22:39:54;5.55;;;2.72;;
12359;SDS011;6244;51.460;7.090;2023-02-01T22:44:52;4.72;;;2.70;;
12359;SDS011;6244;51.460;7.090;2023-02-01T22:49:50;3.65;;;2.35;;
12359;SDS011;6244;51.460;7.090;2023-02-01T22:54:47;6.85;;;3.15;;
12359;SDS011;6244;51.460;7.090;2023-02-01T22:59:43;7.32;;;2.58;;
12359;SDS011;6244;51.460;7.090;2023-02-01T23:04:40;7.05;;;3.00;;
12359;SDS011;6244;51.460;7.090;2023-02-01T23:09:38;6.40;;;3.20;;
12359;SDS011;6244;51.460;7.090;2023-02-01T23:14:34;5.30;;;2.97;;
12359;SDS011;6244;51.460;7.090;2023-02-01T23:19:52;6.97;;;3.03;;
12359;SDS011;6244;51.460;7.090;2023-02-01T23:24:50;5.55;;;3.28;;
12359;SDS011;6244;51.460;7.090;2023-02-01T23:29:46;7.75;;;3.70;;
12359;SDS011;6244;51.460;7.090;2023-02-01T23:34:43;7.72;;;3.47;;
12359;SDS011;6244;51.460;7.090;2023-02-01T23:39:39;8.38;;;3.30;;
12359;SDS011;6244;51.460;7.090;2023-02-01T23:44:37;5.53;;;3.53;;
12359;SDS011;6244;51.460;7.090;2023-02-01T23:49:34;5.53;;;2.83;;
12359;SDS011;6244;51.460;7.090;2023-02-01T23:54:30;4.80;;;2.83;;
12359;SDS011;6244;51.460;7.090;2023-02-01T23:59:27;5.53;;;3.03;;
